Time;durP1;ratioP1;P1;durP2;ratioP2;P2;SDS_P1;SDS_P2;PMS_P1;PMS_P2;Temp;Humidity;BMP_temperature;BMP_pressure;BME280_temperature;BME280_humidity;BME280_pressure;Samples;Min_cycle;Max_cycle;Signal;HPM_P1;HPM_P2
2021/01/29 00:01:05;;;;;;;7.37;4.67;;;0.20;99.90;;;;;;5021084;28;20223;-47
2021/01/29 00:03:30;;;;;;;5.70;4.93;;;0.10;99.90;;;;;;5013857;28;20204;-48
2021/01/29 00:06:01;;;;;;;9.20;5.30;;;0.10;99.90;;;;;;5018677;28;20212;-49
2021/01/29 00:08:27;;;;;;;8.33;5.13;;;0.10;99.90;;;;;;5019870;28;20280;-46
2021/01/29 00:10:53;;;;;;;10.33;5.03;;;0.10;99.90;;;;;;5025565;28;20280;-52
2021/01/29 00:13:19;;;;;;;8.80;4.63;;;0.00;99.90;;;;;;5017799;28;20212;-47
2021/01/29 00:15:45;;;;;;;7.07;4.77;;;0.10;99.90;;;;;;5023430;28;20552;-48
2021/01/29 00:18:12;;;;;;;6.13;5.03;;;0.00;99.90;;;;;;5022460;28;20264;-52
2021/01/29 00:20:38;;;;;;;9.63;4.87;;;0.00;99.90;;;;;;5017281;28;20201;-51
2021/01/29 00:23:03;;;;;;;5.73;4.17;;;-0.10;99.90;;;;;;5009677;28;20193;-47
2021/01/29 00:25:33;;;;;;;7.63;4.83;;;-0.10;99.90;;;;;;5012454;28;20222;-48
2021/01/29 00:27:59;;;;;;;8.73;4.80;;;-0.10;99.90;;;;;;5018843;28;20269;-46
2021/01/29 00:30:26;;;;;;;8.13;4.30;;;-0.10;99.90;;;;;;5016462;28;20657;-48
2021/01/29 00:32:52;;;;;;;6.33;4.20;;;-0.10;99.90;;;;;;5019922;28;20312;-50
2021/01/29 00:35:19;;;;;;;5.30;4.10;;;-0.20;99.90;;;;;;5017129;28;20192;-53
2021/01/29 00:37:45;;;;;;;5.83;4.03;;;-0.20;99.90;;;;;;5014517;28;20246;-49
2021/01/29 00:40:11;;;;;;;7.37;4.37;;;-0.20;99.90;;;;;;5018923;28;20835;-47
2021/01/29 00:42:37;;;;;;;4.77;4.17;;;-0.10;99.90;;;;;;5016750;28;20186;-47
2021/01/29 00:45:04;;;;;;;4.87;4.33;;;-0.10;99.90;;;;;;5021945;28;20452;-54
2021/01/29 00:47:30;;;;;;;5.17;4.00;;;-0.10;99.90;;;;;;5023871;28;20193;-51
2021/01/29 00:49:56;;;;;;;9.87;4.63;;;-0.10;99.90;;;;;;5020082;28;20288;-47
2021/01/29 00:52:21;;;;;;;7.23;3.47;;;-0.10;99.90;;;;;;5021652;28;20388;-45
2021/01/29 00:54:46;;;;;;;5.97;4.17;;;-0.10;99.90;;;;;;5008192;28;20562;-51
2021/01/29 00:57:12;;;;;;;5.20;3.67;;;-0.10;99.90;;;;;;5021694;28;20236;-48
2021/01/29 00:59:38;;;;;;;6.10;4.13;;;-0.10;99.90;;;;;;5020812;28;20211;-48
2021/01/29 01:02:04;;;;;;;6.83;3.73;;;-0.10;99.90;;;;;;5018856;28;20368;-52
2021/01/29 01:04:29;;;;;;;5.57;3.80;;;-0.10;99.90;;;;;;5015296;28;20200;-50
2021/01/29 01:06:55;;;;;;;8.53;4.20;;;-0.10;99.90;;;;;;5019543;28;20445;-49
2021/01/29 01:09:20;;;;;;;6.07;3.93;;;-0.10;99.90;;;;;;5015979;28;20219;-48
2021/01/29 01:11:46;;;;;;;6.27;4.00;;;-0.10;99.90;;;;;;5012208;28;20267;-50
2021/01/29 01:14:11;;;;;;;4.77;3.40;;;-0.10;99.90;;;;;;5021413;28;20219;-48
2021/01/29 01:16:37;;;;;;;5.57;3.60;;;-0.10;99.90;;;;;;5025627;28;20259;-46
2021/01/29 01:19:03;;;;;;;6.27;3.90;;;-0.10;99.90;;;;;;5022540;28;20204;-49
2021/01/29 01:21:28;;;;;;;6.03;3.87;;;-0.10;99.90;;;;;;5017033;28;20183;-49
2021/01/29 01:23:54;;;;;;;7.23;3.63;;;-0.10;99.90;;;;;;5009377;28;20618;-49
2021/01/29 01:26:19;;;;;;;3.93;2.97;;;-0.10;99.90;;;;;;5019251;28;20220;-48
2021/01/29 01:28:45;;;;;;;4.07;3.37;;;-0.10;99.90;;;;;;5017231;28;20177;-50
2021/01/29 01:31:10;;;;;;;6.80;3.30;;;-0.10;99.90;;;;;;5019001;28;20695;-48
2021/01/29 01:33:36;;;;;;;4.73;3.27;;;-0.10;99.90;;;;;;5021312;28;20212;-49
2021/01/29 01:36:01;;;;;;;4.70;2.93;;;-0.10;99.90;;;;;;5018171;28;20271;-49
2021/01/29 01:38:27;;;;;;;5.43;3.10;;;-0.10;99.90;;;;;;5022114;28;20192;-49
2021/01/29 01:40:52;;;;;;;2.90;2.53;;;-0.10;99.90;;;;;;5008558;28;20209;-51
2021/01/29 01:43:18;;;;;;;5.13;2.83;;;-0.10;99.90;;;;;;5026012;28;20212;-47
2021/01/29 01:46:03;;;;;;;8.33;3.03;;;-0.10;99.90;;;;;;5023852;28;20703;-52
2021/01/29 01:48:28;;;;;;;2.73;2.53;;;-0.10;99.90;;;;;;5028086;28;20246;-50
2021/01/29 01:50:54;;;;;;;4.77;3.03;;;-0.10;99.90;;;;;;5014387;28;20594;-51
2021/01/29 01:53:38;;;;;;;5.30;3.03;;;-0.10;99.90;;;;;;5032958;28;20291;-50
2021/01/29 01:56:36;;;;;;;3.33;2.90;;;-0.10;99.90;;;;;;5013876;28;20184;-55
2021/01/29 01:59:06;;;;;;;3.70;2.27;;;-0.10;99.90;;;;;;5023694;28;20200;-52
2021/01/29 02:01:33;;;;;;;2.70;2.30;;;-0.10;99.90;;;;;;5024195;28;20561;-50
2021/01/29 02:03:59;;;;;;;5.93;3.33;;;-0.10;99.90;;;;;;5018380;28;20173;-51
2021/01/29 02:06:26;;;;;;;3.37;2.53;;;-0.10;99.90;;;;;;5025896;28;20612;-47
2021/01/29 02:08:56;;;;;;;3.87;2.63;;;0.00;99.90;;;;;;5029517;28;20319;-55
2021/01/29 02:11:22;;;;;;;2.90;2.07;;;0.00;99.90;;;;;;5017402;28;20211;-47
2021/01/29 02:13:48;;;;;;;3.33;2.93;;;0.00;99.90;;;;;;5024560;28;20714;-48
2021/01/29 02:16:29;;;;;;;3.97;2.50;;;0.00;99.90;;;;;;5020769;28;20185;-50
2021/01/29 02:19:33;;;;;;;3.17;2.50;;;-0.10;99.90;;;;;;5024770;28;20177;-52
2021/01/29 02:22:38;;;;;;;3.13;2.20;;;0.00;99.90;;;;;;5024978;28;20183;-50
2021/01/29 02:25:27;;;;;;;3.50;2.43;;;0.00;99.90;;;;;;5023830;28;20187;-49
2021/01/29 02:27:59;;;;;;;3.53;2.37;;;-0.10;99.90;;;;;;5018995;28;20189;-51
2021/01/29 02:30:50;;;;;;;4.00;2.43;;;-0.10;99.90;;;;;;5028693;28;20208;-50
2021/01/29 02:34:08;;;;;;;2.33;2.10;;;-0.10;99.90;;;;;;5023970;28;20211;-48
2021/01/29 02:36:40;;;;;;;3.67;2.53;;;0.00;99.90;;;;;;5014865;28;20389;-49
2021/01/29 02:39:47;;;;;;;3.30;2.20;;;-0.10;99.90;;;;;;5014504;28;20272;-48
2021/01/29 02:42:28;;;;;;;3.53;2.13;;;-0.10;99.90;;;;;;5014956;28;20196;-46
2021/01/29 02:45:14;;;;;;;2.10;2.00;;;-0.10;99.90;;;;;;5020311;28;20188;-47
2021/01/29 02:47:53;;;;;;;4.33;2.20;;;-0.10;99.90;;;;;;5019742;28;20425;-51
2021/01/29 02:50:39;;;;;;;2.00;1.80;;;-0.10;99.90;;;;;;5023274;28;20263;-51
2021/01/29 02:53:18;;;;;;;4.17;2.00;;;-0.10;99.90;;;;;;5026160;28;20230;-47
2021/01/29 02:55:53;;;;;;;2.03;1.90;;;-0.10;99.90;;;;;;5024095;28;20184;-48
2021/01/29 02:58:45;;;;;;;2.17;1.70;;;-0.10;99.90;;;;;;5005623;28;20191;-48
2021/01/29 03:01:23;;;;;;;3.10;1.97;;;-0.10;99.90;;;;;;5017563;28;20196;-49
2021/01/29 03:03:53;;;;;;;2.43;1.90;;;-0.10;99.90;;;;;;5025043;28;20656;-53
2021/01/29 03:06:34;;;;;;;2.87;1.87;;;-0.10;99.90;;;;;;5022895;28;20177;-49
2021/01/29 03:09:16;;;;;;;10.60;2.37;;;-0.10;99.90;;;;;;5026954;28;20176;-50
2021/01/29 03:12:02;;;;;;;2.50;1.67;;;-0.10;99.90;;;;;;5025187;28;20660;-54
2021/01/29 03:14:35;;;;;;;2.93;1.80;;;-0.10;99.90;;;;;;5013772;28;20500;-49
2021/01/29 03:17:25;;;;;;;3.70;2.13;;;-0.10;99.90;;;;;;5030319;28;20177;-48
2021/01/29 03:20:14;;;;;;;3.27;1.57;;;-0.10;99.90;;;;;;5022335;28;20207;-50
2021/01/29 03:22:53;;;;;;;2.77;1.73;;;0.00;99.90;;;;;;5022973;28;20182;-51
2021/01/29 03:25:26;;;;;;;2.10;1.43;;;0.00;99.90;;;;;;5019228;28;20191;-48
2021/01/29 03:27:59;;;;;;;1.90;1.43;;;0.00;99.90;;;;;;5024563;28;20188;-45
2021/01/29 03:30:29;;;;;;;1.80;1.70;;;0.00;99.90;;;;;;5010714;28;20422;-49
2021/01/29 03:32:58;;;;;;;3.00;1.80;;;0.00;99.90;;;;;;5024589;28;20203;-52
2021/01/29 03:35:39;;;;;;;3.50;1.50;;;0.00;99.90;;;;;;5022883;28;20173;-50
2021/01/29 03:38:10;;;;;;;1.73;1.37;;;0.00;99.90;;;;;;5028269;28;20176;-49
2021/01/29 03:40:41;;;;;;;1.90;1.17;;;0.10;99.90;;;;;;5022785;28;20232;-53
2021/01/29 03:43:21;;;;;;;1.90;1.60;;;0.00;99.90;;;;;;5025754;28;20184;-52
2021/01/29 03:46:15;;;;;;;2.17;1.27;;;0.00;99.90;;;;;;5017752;28;20188;-53
2021/01/29 03:48:52;;;;;;;2.87;1.30;;;0.10;99.90;;;;;;5023711;28;20423;-49
2021/01/29 03:51:39;;;;;;;1.30;1.13;;;0.00;99.90;;;;;;5021485;28;20693;-51
2021/01/29 03:54:12;;;;;;;2.83;1.30;;;0.00;99.90;;;;;;5015840;28;20199;-48
2021/01/29 03:57:00;;;;;;;1.60;1.17;;;0.10;99.90;;;;;;5029187;28;20167;-47
2021/01/29 03:59:41;;;;;;;2.57;1.63;;;0.00;99.90;;;;;;5018953;28;20275;-51
2021/01/29 04:02:18;;;;;;;3.33;1.47;;;0.10;99.90;;;;;;5012236;28;20254;-48
2021/01/29 04:05:04;;;;;;;4.17;1.20;;;0.10;99.90;;;;;;5020601;28;20179;-51
2021/01/29 04:07:37;;;;;;;4.87;1.40;;;0.10;99.90;;;;;;5019132;28;20700;-50
2021/01/29 04:10:09;;;;;;;4.17;1.57;;;0.10;99.90;;;;;;5023295;28;20779;-49
2021/01/29 04:12:41;;;;;;;3.33;1.50;;;0.10;99.90;;;;;;5023614;28;20591;-49
2021/01/29 04:15:23;;;;;;;2.87;1.30;;;0.10;99.90;;;;;;5021833;28;20544;-51
2021/01/29 04:18:00;;;;;;;1.10;1.00;;;0.10;99.90;;;;;;5031952;28;20188;-50
2021/01/29 04:20:34;;;;;;;2.97;1.87;;;0.10;99.90;;;;;;5019932;28;20471;-50
2021/01/29 04:23:03;;;;;;;4.20;1.80;;;0.10;99.90;;;;;;5026431;28;20203;-48
2021/01/29 04:25:41;;;;;;;3.50;1.70;;;0.10;99.90;;;;;;5017086;28;20647;-47
2021/01/29 04:28:16;;;;;;;4.80;1.57;;;0.10;99.90;;;;;;5022409;28;20188;-49
2021/01/29 04:30:46;;;;;;;4.63;1.67;;;0.10;99.90;;;;;;5018847;28;20472;-46
2021/01/29 04:33:17;;;;;;;3.50;1.57;;;0.10;99.90;;;;;;5015123;28;20311;-47
2021/01/29 04:35:43;;;;;;;3.43;1.87;;;0.10;99.90;;;;;;5014066;28;20406;-47
2021/01/29 04:38:22;;;;;;;2.60;1.60;;;0.10;99.90;;;;;;5022443;28;20187;-47
2021/01/29 04:41:29;;;;;;;5.57;1.83;;;0.10;99.90;;;;;;5016213;28;20227;-51
2021/01/29 04:44:28;;;;;;;2.50;1.83;;;0.10;99.90;;;;;;5024162;28;20191;-47
2021/01/29 04:47:12;;;;;;;5.93;1.80;;;0.10;99.90;;;;;;5017734;28;20673;-53
2021/01/29 04:50:01;;;;;;;7.17;2.30;;;0.10;99.90;;;;;;5022923;28;20397;-47
2021/01/29 04:53:00;;;;;;;2.47;2.00;;;0.10;99.90;;;;;;5018597;28;20212;-46
2021/01/29 04:55:53;;;;;;;6.70;1.90;;;0.10;99.90;;;;;;5015048;28;20668;-46
2021/01/29 04:58:37;;;;;;;4.07;1.80;;;0.00;99.90;;;;;;5023368;28;20183;-46
2021/01/29 05:01:23;;;;;;;3.77;2.20;;;0.00;99.90;;;;;;5019500;28;20208;-51
2021/01/29 05:03:52;;;;;;;8.00;1.97;;;0.00;99.90;;;;;;5018058;28;20189;-46
2021/01/29 05:06:49;;;;;;;4.03;2.17;;;0.00;99.90;;;;;;5025176;28;20571;-50
2021/01/29 05:09:33;;;;;;;3.47;2.20;;;0.00;99.90;;;;;;5027757;28;20226;-49
2021/01/29 05:12:02;;;;;;;4.20;2.03;;;0.00;99.90;;;;;;5017766;28;20212;-51
2021/01/29 05:15:06;;;;;;;2.70;2.27;;;0.00;99.90;;;;;;5021131;28;20173;-51
2021/01/29 05:18:03;;;;;;;5.80;1.93;;;0.00;99.90;;;;;;5006353;28;20290;-49
2021/01/29 05:20:55;;;;;;;3.33;1.70;;;0.00;99.90;;;;;;5025419;28;20200;-48
2021/01/29 05:23:51;;;;;;;3.77;1.70;;;0.00;99.90;;;;;;5019839;28;20549;-48
2021/01/29 05:26:46;;;;;;;5.03;2.17;;;0.00;99.90;;;;;;5015514;28;20192;-47
2021/01/29 05:29:35;;;;;;;3.07;2.03;;;-0.10;99.90;;;;;;5021281;28;20433;-47
2021/01/29 05:32:12;;;;;;;2.47;1.80;;;-0.10;99.90;;;;;;5008300;28;24193;-50
2021/01/29 05:34:44;;;;;;;5.93;1.93;;;-0.10;99.90;;;;;;5021997;28;20227;-48
2021/01/29 05:37:43;;;;;;;1.93;1.63;;;-0.10;99.90;;;;;;5008143;28;20395;-49
2021/01/29 05:40:37;;;;;;;2.57;1.60;;;-0.10;99.90;;;;;;5013403;28;20576;-45
2021/01/29 05:43:51;;;;;;;3.40;1.50;;;-0.10;99.90;;;;;;5018231;28;20421;-49
2021/01/29 05:46:35;;;;;;;3.03;1.53;;;-0.10;99.90;;;;;;5020862;28;20390;-46
2021/01/29 05:49:23;;;;;;;2.93;1.70;;;-0.10;99.90;;;;;;5006873;28;20282;-51
2021/01/29 05:52:16;;;;;;;1.20;1.00;;;-0.10;99.90;;;;;;5014330;28;20288;-52
2021/01/29 05:54:59;;;;;;;2.90;1.30;;;-0.10;99.90;;;;;;5010512;28;20366;-47
2021/01/29 05:57:44;;;;;;;3.50;1.40;;;-0.10;99.90;;;;;;5022580;28;20203;-49
2021/01/29 06:00:28;;;;;;;3.73;2.07;;;-0.10;99.90;;;;;;5016140;28;20223;-53
2021/01/29 06:03:27;;;;;;;2.30;0.97;;;-0.10;99.90;;;;;;5018019;28;20966;-49
2021/01/29 06:05:55;;;;;;;3.47;1.27;;;-0.10;99.90;;;;;;5010087;28;20218;-52
2021/01/29 06:08:32;;;;;;;2.13;1.37;;;-0.10;99.90;;;;;;5015942;28;20195;-49
2021/01/29 06:11:22;;;;;;;1.90;1.17;;;-0.10;99.90;;;;;;5023000;28;20261;-49
2021/01/29 06:14:11;;;;;;;1.93;1.00;;;-0.10;99.90;;;;;;5015085;28;20299;-47
2021/01/29 06:17:01;;;;;;;2.10;1.40;;;-0.10;99.90;;;;;;5024050;28;20271;-48
2021/01/29 06:20:09;;;;;;;3.30;1.13;;;-0.10;99.90;;;;;;5019346;28;20261;-47
2021/01/29 06:23:02;;;;;;;2.30;0.83;;;-0.10;99.90;;;;;;5015043;28;20527;-51
2021/01/29 06:26:05;;;;;;;2.60;1.37;;;-0.10;99.90;;;;;;5027033;28;20188;-46
2021/01/29 06:28:54;;;;;;;3.20;1.20;;;-0.10;99.90;;;;;;5024866;28;20627;-48
2021/01/29 06:31:55;;;;;;;2.77;0.80;;;-0.10;99.90;;;;;;4992079;28;20199;-47
2021/01/29 06:34:54;;;;;;;4.53;1.33;;;-0.10;99.90;;;;;;5025685;28;20322;-53
2021/01/29 06:37:44;;;;;;;2.03;1.17;;;-0.10;99.90;;;;;;5019778;28;20191;-51
2021/01/29 06:40:20;;;;;;;3.47;1.27;;;-0.10;99.90;;;;;;5020515;28;20197;-49
2021/01/29 06:43:05;;;;;;;5.47;1.27;;;-0.10;99.90;;;;;;5026358;28;20190;-50
2021/01/29 06:45:50;;;;;;;1.53;0.70;;;-0.10;99.90;;;;;;5025139;28;20192;-52
2021/01/29 06:48:34;;;;;;;3.43;1.23;;;-0.10;99.90;;;;;;5022061;28;20177;-50
2021/01/29 06:51:27;;;;;;;2.13;0.77;;;-0.10;99.90;;;;;;5017794;28;20192;-51
2021/01/29 06:54:04;;;;;;;1.80;0.83;;;-0.10;99.90;;;;;;5019277;28;20212;-50
2021/01/29 06:56:57;;;;;;;1.03;0.70;;;-0.10;99.90;;;;;;5023662;28;20181;-50
2021/01/29 06:59:59;;;;;;;2.07;0.93;;;-0.10;99.90;;;;;;5022043;28;20197;-52
2021/01/29 07:03:02;;;;;;;1.10;1.00;;;-0.10;99.90;;;;;;5026949;28;20306;-53
2021/01/29 07:05:30;;;;;;;2.60;0.80;;;-0.10;99.90;;;;;;4991506;28;20196;-50
2021/01/29 07:08:28;;;;;;;1.93;0.80;;;-0.10;99.90;;;;;;5010944;28;20774;-54
2021/01/29 07:11:09;;;;;;;0.90;0.90;;;-0.10;99.90;;;;;;5015261;28;20816;-53
2021/01/29 07:13:49;;;;;;;3.10;1.10;;;-0.10;99.90;;;;;;5016726;28;20680;-52
2021/01/29 07:16:24;;;;;;;0.83;0.70;;;-0.10;99.90;;;;;;5012824;28;20193;-52
2021/01/29 07:19:07;;;;;;;3.10;1.13;;;-0.10;99.90;;;;;;5017639;28;20166;-49
2021/01/29 07:22:09;;;;;;;2.07;0.60;;;-0.10;99.90;;;;;;5021145;28;20193;-47
2021/01/29 07:25:22;;;;;;;4.67;1.00;;;-0.10;99.90;;;;;;5022933;28;20196;-50
2021/01/29 07:28:10;;;;;;;2.00;1.10;;;-0.10;99.90;;;;;;5016270;28;20284;-50
2021/01/29 07:30:52;;;;;;;0.97;0.60;;;0.00;99.90;;;;;;5023519;28;20432;-47
2021/01/29 07:33:36;;;;;;;2.20;0.53;;;0.00;99.90;;;;;;5020137;28;20593;-49
2021/01/29 07:36:39;;;;;;;2.40;0.70;;;0.00;99.90;;;;;;5016445;28;20903;-50
2021/01/29 07:39:23;;;;;;;2.20;0.60;;;0.00;99.90;;;;;;5002734;28;21085;-56
2021/01/29 07:42:07;;;;;;;1.67;0.60;;;0.00;99.90;;;;;;5017882;28;20199;-52
2021/01/29 07:45:02;;;;;;;0.60;0.60;;;0.00;99.90;;;;;;5021476;28;20180;-49
2021/01/29 07:48:05;;;;;;;1.73;0.70;;;0.00;99.90;;;;;;4989918;28;20197;-52
2021/01/29 07:50:55;;;;;;;1.60;0.63;;;0.00;99.90;;;;;;5021253;28;20623;-53
2021/01/29 07:53:38;;;;;;;1.90;0.70;;;0.00;99.90;;;;;;4974753;28;20224;-54
2021/01/29 07:56:32;;;;;;;0.70;0.60;;;0.00;99.90;;;;;;5024246;28;20582;-48
2021/01/29 07:59:25;;;;;;;2.10;0.60;;;0.00;99.90;;;;;;5016699;28;20259;-49
2021/01/29 08:02:03;;;;;;;1.43;0.60;;;0.10;99.90;;;;;;5023278;28;20248;-52
2021/01/29 08:04:35;;;;;;;0.73;0.40;;;0.10;99.90;;;;;;5019187;28;20663;-51
2021/01/29 08:07:23;;;;;;;2.57;0.70;;;0.10;99.90;;;;;;5021046;28;20654;-53
2021/01/29 08:09:55;;;;;;;2.13;0.60;;;0.10;99.90;;;;;;5012234;28;20197;-50
2021/01/29 08:12:23;;;;;;;0.70;0.57;;;0.10;99.90;;;;;;5017785;28;20212;-53
2021/01/29 08:15:10;;;;;;;1.07;0.57;;;0.20;99.90;;;;;;5010863;28;20894;-49
2021/01/29 08:18:17;;;;;;;0.63;0.53;;;0.20;99.90;;;;;;5013735;28;20192;-53
2021/01/29 08:21:10;;;;;;;1.73;1.00;;;0.20;99.90;;;;;;5010980;28;20209;-51
2021/01/29 08:23:58;;;;;;;2.17;0.67;;;0.20;99.90;;;;;;5003106;28;20239;-54
2021/01/29 08:27:01;;;;;;;1.40;0.40;;;0.30;99.90;;;;;;5019925;28;20186;-54
2021/01/29 08:29:52;;;;;;;1.67;0.80;;;0.30;99.90;;;;;;5020138;28;20640;-53
2021/01/29 08:32:46;;;;;;;1.47;0.90;;;0.30;99.90;;;;;;5022528;28;20228;-53
2021/01/29 08:35:40;;;;;;;1.20;0.60;;;0.30;99.90;;;;;;5021460;28;20208;-47
2021/01/29 08:38:16;;;;;;;2.30;0.70;;;0.40;99.90;;;;;;5013694;28;20546;-51
2021/01/29 08:41:10;;;;;;;1.83;0.70;;;0.40;99.90;;;;;;5015389;28;20204;-52
2021/01/29 08:43:55;;;;;;;2.13;0.87;;;0.40;99.90;;;;;;5020164;28;20928;-50
2021/01/29 08:46:40;;;;;;;2.77;1.00;;;0.40;99.90;;;;;;5025617;28;20219;-49
2021/01/29 08:49:42;;;;;;;3.50;0.70;;;0.40;99.90;;;;;;5021073;28;20189;-51
2021/01/29 08:52:27;;;;;;;1.10;0.87;;;0.40;99.90;;;;;;5014599;28;20221;-49
2021/01/29 08:55:18;;;;;;;1.77;1.10;;;0.50;99.90;;;;;;5008766;28;20219;-54
2021/01/29 08:58:05;;;;;;;3.13;0.73;;;0.50;99.90;;;;;;5014753;28;20189;-53
2021/01/29 09:00:35;;;;;;;0.90;0.80;;;0.50;99.90;;;;;;5015961;28;20209;-49
2021/01/29 09:03:30;;;;;;;1.40;1.00;;;0.50;99.90;;;;;;5018280;28;20190;-46
2021/01/29 09:06:25;;;;;;;2.00;0.60;;;0.50;99.90;;;;;;5019655;28;20190;-46
2021/01/29 09:09:03;;;;;;;1.47;0.93;;;0.50;99.90;;;;;;5015234;28;20208;-50
2021/01/29 09:11:47;;;;;;;2.57;0.70;;;0.50;99.90;;;;;;5012623;28;20195;-47
2021/01/29 09:14:35;;;;;;;1.97;0.80;;;0.50;99.90;;;;;;5014001;28;20730;-51
2021/01/29 09:17:21;;;;;;;1.80;0.70;;;0.60;99.90;;;;;;5022260;28;20180;-49
2021/01/29 09:20:00;;;;;;;1.10;1.00;;;0.60;99.90;;;;;;5022739;28;20243;-47
2021/01/29 09:22:56;;;;;;;1.17;0.70;;;0.60;99.90;;;;;;5021622;28;20172;-48
2021/01/29 09:25:49;;;;;;;0.70;0.67;;;0.70;99.90;;;;;;5010117;28;20936;-50
2021/01/29 09:28:22;;;;;;;3.00;0.80;;;0.70;99.90;;;;;;5005751;28;20272;-53
2021/01/29 09:30:56;;;;;;;1.27;0.70;;;0.80;99.90;;;;;;5025451;28;20216;-50
2021/01/29 09:33:36;;;;;;;1.93;0.73;;;0.80;99.90;;;;;;5014965;28;20829;-49
2021/01/29 09:36:18;;;;;;;3.10;0.87;;;0.80;99.90;;;;;;5027930;28;20164;-51
2021/01/29 09:38:59;;;;;;;0.97;0.60;;;0.80;99.90;;;;;;5017756;28;20268;-50
2021/01/29 09:41:31;;;;;;;0.63;0.53;;;0.80;99.90;;;;;;5007539;28;20182;-48
2021/01/29 09:44:26;;;;;;;2.13;0.80;;;0.80;99.90;;;;;;5016527;28;20240;-50
2021/01/29 09:46:55;;;;;;;0.80;0.60;;;0.80;99.90;;;;;;5015050;28;20185;-47
2021/01/29 09:49:28;;;;;;;1.13;0.60;;;0.80;99.90;;;;;;5012845;28;20210;-51
2021/01/29 09:51:59;;;;;;;0.60;0.60;;;0.80;99.90;;;;;;5023033;28;20727;-46
2021/01/29 09:54:53;;;;;;;1.17;0.60;;;0.80;99.90;;;;;;5014931;28;20201;-50
2021/01/29 09:57:24;;;;;;;1.70;0.63;;;0.80;99.90;;;;;;5008340;28;20221;-56
2021/01/29 10:00:02;;;;;;;0.80;0.60;;;0.80;99.90;;;;;;5021480;28;20573;-51
2021/01/29 10:02:41;;;;;;;1.73;0.70;;;0.80;99.90;;;;;;5017045;28;20273;-47
2021/01/29 10:05:17;;;;;;;0.67;0.60;;;0.90;99.90;;;;;;5020621;28;20265;-53
2021/01/29 10:08:07;;;;;;;1.43;0.80;;;0.90;99.90;;;;;;5021532;28;20540;-50
2021/01/29 10:10:44;;;;;;;1.70;0.60;;;0.80;99.90;;;;;;5015975;28;20232;-52
2021/01/29 10:13:24;;;;;;;0.70;0.60;;;0.80;99.90;;;;;;5012527;28;20220;-47
2021/01/29 10:16:06;;;;;;;1.67;0.70;;;0.80;99.90;;;;;;5027258;28;20654;-51
2021/01/29 10:18:35;;;;;;;1.63;0.60;;;0.90;99.90;;;;;;5019945;28;20987;-49
2021/01/29 10:21:19;;;;;;;0.73;0.70;;;0.90;99.90;;;;;;5021649;28;20202;-51
2021/01/29 10:23:55;;;;;;;1.50;0.77;;;0.90;99.90;;;;;;5019482;28;20185;-47
2021/01/29 10:26:29;;;;;;;3.63;0.73;;;0.90;99.90;;;;;;5018084;28;20196;-51
2021/01/29 10:29:09;;;;;;;1.27;0.63;;;0.90;99.90;;;;;;5016378;28;20185;-49
2021/01/29 10:31:43;;;;;;;1.70;0.87;;;0.90;99.90;;;;;;5018498;28;20228;-49
2021/01/29 10:34:55;;;;;;;1.13;0.80;;;0.90;99.90;;;;;;5024219;28;20564;-52
2021/01/29 10:37:30;;;;;;;2.17;0.77;;;1.00;99.90;;;;;;4973404;28;20243;-50
2021/01/29 10:40:19;;;;;;;2.50;0.60;;;1.00;99.90;;;;;;5021726;28;20214;-50
2021/01/29 10:42:54;;;;;;;1.10;0.80;;;1.10;99.90;;;;;;5020996;28;20189;-48
2021/01/29 10:45:52;;;;;;;3.53;0.80;;;1.10;99.90;;;;;;5007957;28;20209;-52
2021/01/29 10:48:43;;;;;;;1.43;0.70;;;1.10;99.90;;;;;;5013789;28;20220;-53
2021/01/29 10:51:30;;;;;;;1.90;0.60;;;1.10;99.90;;;;;;5022801;28;20216;-48
2021/01/29 10:54:01;;;;;;;3.30;0.77;;;1.20;99.90;;;;;;5026075;28;20207;-48
2021/01/29 10:56:37;;;;;;;3.17;0.47;;;1.20;99.90;;;;;;5019733;28;20203;-47
2021/01/29 10:59:16;;;;;;;2.20;0.60;;;1.20;99.90;;;;;;5015874;28;20185;-52
2021/01/29 11:01:48;;;;;;;1.47;0.77;;;1.20;99.90;;;;;;5022855;28;20284;-47
2021/01/29 11:04:32;;;;;;;1.47;0.67;;;1.20;99.90;;;;;;5018166;28;20186;-53
2021/01/29 11:07:04;;;;;;;1.07;0.67;;;1.20;99.90;;;;;;5021478;28;20198;-50
2021/01/29 11:09:34;;;;;;;0.83;0.53;;;1.20;99.90;;;;;;5007618;28;20202;-48
2021/01/29 11:12:24;;;;;;;0.93;0.57;;;1.20;99.90;;;;;;5017175;28;20286;-52
2021/01/29 11:15:20;;;;;;;2.07;0.87;;;1.20;99.90;;;;;;5010281;28;20193;-49
2021/01/29 11:17:55;;;;;;;1.43;0.60;;;1.20;99.90;;;;;;5024679;28;20265;-47
2021/01/29 11:20:28;;;;;;;1.50;0.70;;;1.20;99.90;;;;;;5016185;28;20213;-51
2021/01/29 11:23:05;;;;;;;1.13;0.73;;;1.20;99.90;;;;;;5025191;28;20258;-53
2021/01/29 11:25:44;;;;;;;1.00;0.63;;;1.20;99.90;;;;;;5017009;28;20922;-48
2021/01/29 11:28:33;;;;;;;1.30;0.70;;;1.20;99.90;;;;;;5015411;28;20207;-54
2021/01/29 11:31:11;;;;;;;2.10;0.80;;;1.20;99.90;;;;;;5021265;28;20293;-51
2021/01/29 11:33:41;;;;;;;0.90;0.77;;;1.20;99.90;;;;;;5023347;28;20216;-49
2021/01/29 11:36:29;;;;;;;3.43;0.80;;;1.20;99.90;;;;;;5019429;28;20182;-48
2021/01/29 11:39:18;;;;;;;1.23;0.70;;;1.20;99.90;;;;;;5020100;28;20178;-51
2021/01/29 11:41:59;;;;;;;1.87;1.00;;;1.20;99.90;;;;;;5016406;28;20189;-51
2021/01/29 11:44:47;;;;;;;3.57;0.90;;;1.20;99.90;;;;;;5016387;28;20227;-51
2021/01/29 11:47:41;;;;;;;2.17;1.27;;;1.20;99.90;;;;;;5013178;28;20731;-52
2021/01/29 11:50:28;;;;;;;2.50;0.87;;;1.20;99.90;;;;;;5022215;28;20333;-52
2021/01/29 11:53:12;;;;;;;1.43;1.00;;;1.20;99.90;;;;;;5024348;28;20229;-50
2021/01/29 11:55:47;;;;;;;1.00;0.67;;;1.20;99.90;;;;;;5014914;28;20237;-50
2021/01/29 11:58:32;;;;;;;0.50;0.50;;;1.10;99.90;;;;;;5018038;28;20190;-55
2021/01/29 12:01:14;;;;;;;1.87;0.83;;;1.10;99.90;;;;;;5026287;28;20222;-47
2021/01/29 12:03:47;;;;;;;2.37;0.70;;;1.10;99.90;;;;;;5016077;28;20268;-49
2021/01/29 12:06:21;;;;;;;1.27;0.87;;;1.00;99.90;;;;;;5019460;28;20672;-47
2021/01/29 12:09:14;;;;;;;1.90;0.80;;;1.00;99.90;;;;;;5023222;28;20185;-51
2021/01/29 12:11:51;;;;;;;1.53;1.00;;;1.00;99.90;;;;;;5011781;28;20178;-50
2021/01/29 12:14:25;;;;;;;1.63;0.77;;;1.10;99.90;;;;;;5018445;28;20197;-47
2021/01/29 12:16:57;;;;;;;0.70;0.70;;;1.10;99.90;;;;;;5016722;28;20221;-53
2021/01/29 12:19:38;;;;;;;0.77;0.70;;;1.10;99.90;;;;;;5019069;28;20202;-52
2021/01/29 12:22:21;;;;;;;2.70;0.80;;;1.10;99.90;;;;;;5014114;28;20182;-54
2021/01/29 12:25:24;;;;;;;3.63;0.60;;;1.20;99.90;;;;;;5019205;28;20240;-49
2021/01/29 12:28:00;;;;;;;2.13;0.80;;;1.20;99.90;;;;;;5018712;28;20232;-47
2021/01/29 12:30:41;;;;;;;2.00;0.87;;;1.20;99.90;;;;;;5018518;28;20229;-47
2021/01/29 12:33:20;;;;;;;2.37;0.70;;;1.20;99.90;;;;;;5007767;28;20221;-55
2021/01/29 12:35:53;;;;;;;1.80;0.90;;;1.20;99.90;;;;;;5029014;28;20247;-47
2021/01/29 12:38:37;;;;;;;3.90;0.77;;;1.20;99.90;;;;;;5016823;28;20185;-56
2021/01/29 12:41:25;;;;;;;2.37;1.00;;;1.30;99.90;;;;;;5014408;28;20710;-56
2021/01/29 12:44:16;;;;;;;1.63;1.10;;;1.30;99.90;;;;;;5011083;28;20299;-49
2021/01/29 12:46:52;;;;;;;2.67;0.90;;;1.30;99.90;;;;;;5009609;28;20183;-47
2021/01/29 12:49:50;;;;;;;2.00;0.90;;;1.30;99.90;;;;;;5007849;28;20632;-48
2021/01/29 12:52:44;;;;;;;1.53;1.00;;;1.30;99.90;;;;;;5009663;28;20209;-52
2021/01/29 12:55:44;;;;;;;1.03;0.87;;;1.20;99.90;;;;;;5010638;28;20210;-48
2021/01/29 12:58:12;;;;;;;1.60;0.90;;;1.20;99.90;;;;;;5017633;28;20189;-53
2021/01/29 13:00:39;;;;;;;0.90;0.77;;;1.20;99.90;;;;;;5016844;28;20205;-51
2021/01/29 13:03:23;;;;;;;1.33;0.70;;;1.20;99.90;;;;;;5007268;28;20486;-51
2021/01/29 13:06:10;;;;;;;2.70;0.70;;;1.00;99.90;;;;;;5008526;28;20328;-48
2021/01/29 13:08:52;;;;;;;3.67;0.83;;;1.00;99.90;;;;;;5007802;28;20193;-50
2021/01/29 13:11:51;;;;;;;1.83;0.77;;;0.90;99.90;;;;;;5007370;28;20194;-55
2021/01/29 13:14:38;;;;;;;2.23;0.80;;;0.80;99.90;;;;;;5003277;28;20203;-55
2021/01/29 13:17:24;;;;;;;1.80;0.73;;;0.80;99.90;;;;;;5012770;28;20269;-57
2021/01/29 13:19:59;;;;;;;1.10;0.70;;;0.70;99.90;;;;;;5023086;28;20264;-46
2021/01/29 13:22:33;;;;;;;2.43;0.90;;;0.60;99.90;;;;;;5008795;28;20225;-47
2021/01/29 13:25:26;;;;;;;1.70;0.80;;;0.50;99.90;;;;;;5010992;28;20189;-47
2021/01/29 13:28:01;;;;;;;1.57;1.10;;;0.50;99.90;;;;;;5019724;28;20219;-52
2021/01/29 13:30:36;;;;;;;3.63;1.17;;;0.40;99.90;;;;;;5011840;28;20803;-49
2021/01/29 13:33:23;;;;;;;1.23;0.73;;;0.30;99.90;;;;;;5009400;28;20206;-48
2021/01/29 13:36:01;;;;;;;2.30;1.13;;;0.30;99.90;;;;;;5015339;28;20648;-50
2021/01/29 13:38:34;;;;;;;0.70;0.70;;;0.20;99.90;;;;;;5015289;28;20948;-49
2021/01/29 13:41:36;;;;;;;1.10;0.77;;;0.20;99.90;;;;;;5015718;28;20207;-52
2021/01/29 13:44:20;;;;;;;3.70;1.20;;;0.20;99.90;;;;;;5017273;28;20182;-48
2021/01/29 13:46:50;;;;;;;2.67;1.03;;;0.10;99.90;;;;;;5013744;28;20189;-49
2021/01/29 13:49:39;;;;;;;2.47;1.20;;;0.00;99.90;;;;;;5008689;28;20287;-53
2021/01/29 13:52:24;;;;;;;1.50;1.37;;;0.00;99.90;;;;;;5011338;28;20715;-56
2021/01/29 13:54:50;;;;;;;2.10;0.80;;;-0.10;99.90;;;;;;5013458;28;20318;-50
2021/01/29 13:57:37;;;;;;;2.13;1.03;;;-0.10;99.90;;;;;;5019358;28;20216;-52
2021/01/29 14:00:18;;;;;;;1.67;1.20;;;-0.20;99.90;;;;;;5019766;28;20211;-52
2021/01/29 14:03:10;;;;;;;3.60;1.20;;;-0.20;99.90;;;;;;5018498;28;20275;-47
2021/01/29 14:05:35;;;;;;;2.37;1.10;;;-0.20;99.90;;;;;;4986356;28;20200;-51